Weather at Monterey Bay Academy Airport

Public forecast

Using degrees Fahrenheit for public forecast. Weather courtesy of forecast.io.

Closest aviation weather report (METAR) to Monterey Bay Academy Airport

Closest report is Watsonville Municipal Airport, 3.1 nm (5.7 km) NE. Retrieved 2021/10/23 18:53 UTC (1 hour ago):

KWVI 231853Z AUTO 21008KT 10SM CLR 17/12 A2998 RMK AO2 SLP150 T01670117

Closest aviation forecast (TAF) to Monterey Bay Academy Airport

Closest forecast is Salinas Municipal Airport, 18.5 nm (34.3 km) SE. Retrieved 2021/10/23 18:42 UTC (1 hour ago):

TAF KSNS 231740Z 2318/2418 29006KT P6SM SCT015 SCT150 FM232100 29010KT P6SM FEW025 SCT120 BKN150 FM240300 VRB05KT P6SM SCT030 BKN100 OVC120 FM240800 12009KT P6SM BKN025 BKN080 OVC100 FM241200 13015G22KT P6SM BKN025 BKN080 BKN100 FM241700 16020G28KT P6SM FEW030 SCT060 BKN080